Time;durP1;ratioP1;P1;durP2;ratioP2;P2;SDS_P1;SDS_P2;PMS_P1;PMS_P2;Temp;Humidity;BMP_temperature;BMP_pressure;BME280_temperature;BME280_humidity;BME280_pressure;Samples;Min_cycle;Max_cycle;Signal;HPM_P1;HPM_P2
2021/06/20 00:00:32;;;;;;;19.37;9.43;;;27.90;61.50;;;;;;5100526;28;20555;-47
2021/06/20 00:02:59;;;;;;;15.57;9.67;;;27.90;61.90;;;;;;5101278;28;20412;-47
2021/06/20 00:05:33;;;;;;;15.60;10.20;;;27.90;62.00;;;;;;5098392;28;20451;-47
2021/06/20 00:08:02;;;;;;;16.20;9.30;;;27.80;62.40;;;;;;5098007;28;20819;-47
2021/06/20 00:10:29;;;;;;;16.70;9.63;;;27.80;62.70;;;;;;5099724;28;20477;-47
2021/06/20 00:12:57;;;;;;;18.73;10.23;;;27.80;62.90;;;;;;5099848;28;20236;-47
2021/06/20 00:15:26;;;;;;;10.43;8.77;;;27.80;63.10;;;;;;5100694;28;20807;-47
2021/06/20 00:17:53;;;;;;;9.40;8.30;;;27.70;63.30;;;;;;5099624;28;20471;-47
2021/06/20 00:20:22;;;;;;;10.77;9.23;;;27.60;63.40;;;;;;5103631;28;20459;-47
2021/06/20 00:22:50;;;;;;;13.60;9.83;;;27.60;63.20;;;;;;5101880;28;20462;-46
2021/06/20 00:25:16;;;;;;;12.57;8.47;;;27.60;63.10;;;;;;5100522;27;20455;-48
2021/06/20 00:27:44;;;;;;;13.43;10.00;;;27.60;62.80;;;;;;5100498;28;21047;-47
2021/06/20 00:30:14;;;;;;;15.20;9.20;;;27.60;62.60;;;;;;5099833;28;20460;-48
2021/06/20 00:32:42;;;;;;;15.60;9.50;;;27.70;62.50;;;;;;5101647;28;20487;-48
2021/06/20 00:35:10;;;;;;;11.43;8.77;;;27.70;62.30;;;;;;5097913;28;20543;-48
2021/06/20 00:37:37;;;;;;;14.37;9.70;;;27.70;62.40;;;;;;5095610;28;20205;-48
2021/06/20 00:40:05;;;;;;;13.17;8.90;;;27.70;62.50;;;;;;5095718;28;20443;-48
2021/06/20 00:42:33;;;;;;;15.20;9.33;;;27.60;62.90;;;;;;5098338;28;20474;-47
2021/06/20 00:45:01;;;;;;;12.37;9.83;;;27.60;63.00;;;;;;5100344;28;21432;-47
2021/06/20 00:47:27;;;;;;;12.73;9.30;;;27.60;63.00;;;;;;5100964;28;20709;-47
2021/06/20 00:49:54;;;;;;;13.67;9.60;;;27.50;63.30;;;;;;5101120;28;20830;-47
2021/06/20 00:52:21;;;;;;;11.60;8.90;;;27.50;63.70;;;;;;5099781;28;20488;-47
2021/06/20 00:54:48;;;;;;;13.60;10.53;;;27.50;63.80;;;;;;5099681;28;20459;-48
2021/06/20 00:57:19;;;;;;;12.23;8.87;;;27.40;63.90;;;;;;5099901;28;20513;-48
2021/06/20 00:59:47;;;;;;;13.97;9.30;;;27.40;64.00;;;;;;5099343;28;20535;-48
2021/06/20 01:02:19;;;;;;;14.67;9.50;;;27.50;63.90;;;;;;5102185;28;20460;-47
2021/06/20 01:04:49;;;;;;;13.97;8.70;;;27.50;64.10;;;;;;5098759;28;20455;-47
2021/06/20 01:07:18;;;;;;;15.53;9.97;;;27.50;64.10;;;;;;5098505;28;20467;-47
2021/06/20 01:09:46;;;;;;;14.67;10.10;;;27.50;64.30;;;;;;5098174;28;20501;-47
2021/06/20 01:12:15;;;;;;;12.63;9.10;;;27.50;64.40;;;;;;5096655;28;20499;-47
2021/06/20 01:14:43;;;;;;;12.40;10.10;;;27.50;64.40;;;;;;5091278;28;20455;-47
2021/06/20 01:17:10;;;;;;;13.60;9.90;;;27.50;64.40;;;;;;5102173;27;20451;-47
2021/06/20 01:19:38;;;;;;;17.87;10.10;;;27.50;64.40;;;;;;5103153;28;20471;-47
2021/06/20 01:22:15;;;;;;;12.83;8.83;;;27.50;64.50;;;;;;5097470;28;20459;-47
2021/06/20 01:24:42;;;;;;;20.90;11.00;;;27.50;64.40;;;;;;5096973;28;20464;-47
2021/06/20 01:27:11;;;;;;;19.40;9.70;;;27.60;64.40;;;;;;5101295;28;20460;-48
2021/06/20 01:29:46;;;;;;;17.10;9.83;;;27.60;64.40;;;;;;5102235;28;20504;-48
2021/06/20 01:32:17;;;;;;;16.23;8.60;;;27.50;64.60;;;;;;5098633;28;20481;-47
2021/06/20 01:34:46;;;;;;;16.03;8.80;;;27.50;64.60;;;;;;5097133;28;20458;-47
2021/06/20 01:37:15;;;;;;;14.97;9.43;;;27.50;64.70;;;;;;5097763;28;20451;-47
2021/06/20 01:39:43;;;;;;;12.17;8.77;;;27.40;65.00;;;;;;5098590;28;20440;-48
2021/06/20 01:42:13;;;;;;;14.67;8.27;;;27.40;64.70;;;;;;5099574;28;20974;-48
2021/06/20 01:44:44;;;;;;;12.43;7.70;;;27.40;64.70;;;;;;5100226;28;21032;-47
2021/06/20 01:47:11;;;;;;;11.87;8.80;;;27.30;65.00;;;;;;5103850;28;20949;-47
2021/06/20 01:49:38;;;;;;;11.27;7.03;;;27.30;65.00;;;;;;5093300;28;20474;-48
2021/06/20 01:52:05;;;;;;;15.33;9.10;;;27.30;64.40;;;;;;5095950;28;21051;-47
2021/06/20 01:54:36;;;;;;;18.60;7.77;;;27.20;64.60;;;;;;5098734;28;20940;-48
2021/06/20 01:57:04;;;;;;;12.47;7.73;;;27.20;64.80;;;;;;5099634;28;20458;-47
2021/06/20 01:59:32;;;;;;;15.10;7.60;;;27.20;64.60;;;;;;5094425;28;20452;-47
2021/06/20 02:01:59;;;;;;;13.30;8.10;;;27.20;64.40;;;;;;5094459;28;20483;-47
2021/06/20 02:04:26;;;;;;;9.87;6.43;;;27.10;64.50;;;;;;5098026;28;20471;-47
2021/06/20 02:06:53;;;;;;;19.37;7.70;;;27.10;64.30;;;;;;5098874;28;20933;-47
2021/06/20 02:09:19;;;;;;;10.60;7.60;;;27.00;64.40;;;;;;5096640;28;20475;-47
2021/06/20 02:11:46;;;;;;;14.60;7.47;;;27.00;64.20;;;;;;5099206;28;20463;-47
2021/06/20 02:14:15;;;;;;;13.60;7.93;;;27.00;64.10;;;;;;5097851;28;20483;-47
2021/06/20 02:16:43;;;;;;;13.40;6.50;;;27.00;64.10;;;;;;5096137;28;20458;-48
2021/06/20 02:19:09;;;;;;;13.57;6.47;;;27.00;64.20;;;;;;5096149;28;20816;-47
2021/06/20 02:21:36;;;;;;;16.27;7.70;;;26.90;64.30;;;;;;5101944;28;20461;-47
2021/06/20 02:24:03;;;;;;;9.80;7.50;;;26.90;64.30;;;;;;5092205;28;20456;-47
2021/06/20 02:26:30;;;;;;;14.03;6.57;;;26.80;64.60;;;;;;5097706;28;20456;-47
2021/06/20 02:28:57;;;;;;;12.63;6.73;;;26.80;64.80;;;;;;5096054;28;20473;-47
2021/06/20 02:31:26;;;;;;;15.07;6.77;;;26.80;64.80;;;;;;5098118;28;22108;-47
2021/06/20 02:33:53;;;;;;;12.40;6.93;;;26.70;65.10;;;;;;5099557;28;20980;-47
2021/06/20 02:36:24;;;;;;;15.50;7.47;;;26.70;65.00;;;;;;5095821;28;20466;-47
2021/06/20 02:38:50;;;;;;;14.90;6.60;;;26.70;65.30;;;;;;5097305;28;20952;-47
2021/06/20 02:41:18;;;;;;;11.67;6.40;;;26.60;65.50;;;;;;5100955;28;20452;-47
2021/06/20 02:43:45;;;;;;;14.83;6.50;;;26.60;65.60;;;;;;5100377;28;20458;-48
2021/06/20 02:46:11;;;;;;;13.70;6.40;;;26.60;65.70;;;;;;5096331;28;20460;-48
2021/06/20 02:48:38;;;;;;;14.00;6.03;;;26.60;65.70;;;;;;5096934;28;20451;-47
2021/06/20 02:51:05;;;;;;;9.40;6.13;;;26.60;65.50;;;;;;5095705;28;20455;-47
2021/06/20 02:53:32;;;;;;;12.60;6.17;;;26.60;65.40;;;;;;5098540;28;20489;-48
2021/06/20 02:55:58;;;;;;;13.80;6.80;;;26.60;65.40;;;;;;5101311;28;20443;-48
2021/06/20 02:58:25;;;;;;;13.63;6.07;;;26.50;65.50;;;;;;5101016;28;20455;-48
2021/06/20 03:00:52;;;;;;;12.50;6.73;;;26.50;65.70;;;;;;5097644;28;20455;-47
2021/06/20 03:03:18;;;;;;;13.70;7.83;;;26.40;65.80;;;;;;5098358;28;20459;-47
2021/06/20 03:05:45;;;;;;;8.30;6.70;;;26.40;66.20;;;;;;5096298;28;20451;-47
2021/06/20 03:08:12;;;;;;;15.43;6.13;;;26.30;66.30;;;;;;5096942;28;20460;-47
2021/06/20 03:10:39;;;;;;;11.63;6.67;;;26.30;66.30;;;;;;5092353;28;22936;-47
2021/06/20 03:13:08;;;;;;;11.03;6.80;;;26.30;66.30;;;;;;5092865;28;20476;-47
2021/06/20 03:15:39;;;;;;;10.60;6.37;;;26.20;66.40;;;;;;5098964;28;20447;-47
2021/06/20 03:18:06;;;;;;;9.30;5.60;;;26.10;66.60;;;;;;5093297;28;21018;-48
2021/06/20 03:20:33;;;;;;;9.83;6.47;;;26.10;66.50;;;;;;5098586;28;20944;-47
2021/06/20 03:23:01;;;;;;;19.23;6.40;;;26.00;66.30;;;;;;5094458;28;20463;-47
2021/06/20 03:25:27;;;;;;;7.97;5.40;;;26.00;66.10;;;;;;5099093;28;20819;-47
2021/06/20 03:27:54;;;;;;;8.77;5.47;;;26.00;66.00;;;;;;5095529;28;20465;-47
2021/06/20 03:30:21;;;;;;;12.27;6.10;;;25.90;66.10;;;;;;5101355;28;20463;-47
2021/06/20 03:32:48;;;;;;;9.10;4.80;;;25.90;66.20;;;;;;5092807;28;20483;-47
2021/06/20 03:35:15;;;;;;;13.13;6.83;;;25.90;65.90;;;;;;5094649;28;20529;-47
2021/06/20 03:37:42;;;;;;;9.47;4.83;;;25.90;66.00;;;;;;5097392;28;20460;-47
2021/06/20 03:40:09;;;;;;;11.97;5.93;;;25.90;65.90;;;;;;5093024;28;20459;-47
2021/06/20 03:42:37;;;;;;;6.20;5.00;;;25.80;65.70;;;;;;5096275;28;20447;-48
2021/06/20 03:45:08;;;;;;;7.27;4.93;;;25.80;65.50;;;;;;5097110;28;20460;-47
2021/06/20 03:47:36;;;;;;;7.50;5.57;;;25.70;65.20;;;;;;5099664;28;20462;-47
2021/06/20 03:50:06;;;;;;;9.17;4.57;;;25.70;65.10;;;;;;5096467;28;20486;-47
2021/06/20 03:52:33;;;;;;;7.80;4.43;;;25.60;65.20;;;;;;5093272;28;20459;-47
2021/06/20 03:55:00;;;;;;;8.70;5.03;;;25.60;65.60;;;;;;5095456;28;20448;-47
2021/06/20 03:57:27;;;;;;;9.80;4.80;;;25.60;65.50;;;;;;5094615;28;20478;-47
2021/06/20 03:59:53;;;;;;;13.27;5.30;;;25.50;65.70;;;;;;5093182;28;20447;-47
2021/06/20 04:02:20;;;;;;;7.47;4.60;;;25.50;65.80;;;;;;5091021;28;20456;-47
2021/06/20 04:04:47;;;;;;;7.73;4.20;;;25.50;66.00;;;;;;5093984;28;20903;-47
2021/06/20 04:07:14;;;;;;;8.50;4.40;;;25.40;66.30;;;;;;5097402;28;20820;-47
2021/06/20 04:09:41;;;;;;;6.53;4.10;;;25.40;66.40;;;;;;5091992;28;20916;-47
2021/06/20 04:12:13;;;;;;;10.07;4.43;;;25.40;66.00;;;;;;5093760;28;20458;-47
2021/06/20 04:14:42;;;;;;;10.00;4.00;;;25.40;65.90;;;;;;5092773;28;21057;-47
2021/06/20 04:17:09;;;;;;;6.87;3.70;;;25.30;66.00;;;;;;5098706;27;20460;-47
2021/06/20 04:19:37;;;;;;;6.80;4.07;;;25.20;66.20;;;;;;5102035;28;21208;-47
2021/06/20 04:22:04;;;;;;;10.60;4.27;;;25.20;66.50;;;;;;5102227;28;20462;-47
2021/06/20 04:24:31;;;;;;;8.70;4.60;;;25.20;66.90;;;;;;5098844;28;20455;-47
2021/06/20 04:26:58;;;;;;;7.23;4.40;;;25.20;66.80;;;;;;5101467;28;20467;-48
2021/06/20 04:29:25;;;;;;;6.83;3.80;;;25.10;67.00;;;;;;5102950;28;20504;-47
2021/06/20 04:31:51;;;;;;;4.63;3.60;;;25.20;66.70;;;;;;5097705;28;20938;-48
2021/06/20 04:34:18;;;;;;;7.97;3.73;;;25.10;66.90;;;;;;5101296;28;20844;-47
2021/06/20 04:36:45;;;;;;;8.20;4.97;;;25.10;67.00;;;;;;5103379;27;20488;-47
2021/06/20 04:39:11;;;;;;;10.30;3.63;;;25.10;66.90;;;;;;5099364;28;20455;-47
2021/06/20 04:41:40;;;;;;;8.27;4.27;;;25.20;66.60;;;;;;5102212;28;20446;-47
2021/06/20 04:44:52;;;;;;;6.80;3.63;;;25.10;66.50;;;;;;5094728;28;20467;-47
2021/06/20 04:46:54;;;;;;;5.20;3.87;;;25.10;66.20;;;;;;5096947;28;20459;-47
2021/06/20 04:49:21;;;;;;;8.03;4.20;;;25.10;66.20;;;;;;5096342;28;20467;-46
2021/06/20 04:51:48;;;;;;;5.93;3.20;;;25.10;66.40;;;;;;5102147;28;20467;-47
2021/06/20 04:54:14;;;;;;;6.73;4.20;;;25.00;66.70;;;;;;5096838;28;20484;-47
2021/06/20 04:56:43;;;;;;;7.07;4.07;;;25.00;66.70;;;;;;5096079;28;20459;-47
2021/06/20 04:59:10;;;;;;;7.80;4.73;;;25.00;66.90;;;;;;5097156;28;20839;-47
2021/06/20 05:01:38;;;;;;;6.63;3.87;;;25.00;67.00;;;;;;5097470;28;20466;-47
2021/06/20 05:04:06;;;;;;;7.50;3.50;;;24.90;67.30;;;;;;5096052;28;21489;-47
2021/06/20 05:06:33;;;;;;;9.10;4.50;;;25.00;67.20;;;;;;5101521;28;20957;-47
2021/06/20 05:09:00;;;;;;;8.53;3.67;;;24.90;67.80;;;;;;5097239;28;20469;-47
2021/06/20 05:11:27;;;;;;;6.93;3.20;;;25.00;68.00;;;;;;5098292;28;20812;-47
2021/06/20 05:13:53;;;;;;;4.80;3.70;;;25.00;67.60;;;;;;5095499;27;20827;-47
2021/06/20 05:16:22;;;;;;;5.13;3.90;;;25.00;67.80;;;;;;5099792;28;20474;-47
2021/06/20 05:18:48;;;;;;;7.40;3.70;;;25.00;67.60;;;;;;5097149;28;20507;-47
2021/06/20 05:21:16;;;;;;;5.83;3.60;;;25.00;67.40;;;;;;5097393;28;20949;-47
2021/06/20 05:23:42;;;;;;;9.40;4.77;;;25.00;67.60;;;;;;5098526;28;20456;-47
2021/06/20 05:26:09;;;;;;;6.73;4.00;;;25.00;67.40;;;;;;5104620;28;20486;-47
2021/06/20 05:28:38;;;;;;;8.47;4.17;;;25.00;67.90;;;;;;5097731;28;20459;-47
2021/06/20 05:31:05;;;;;;;7.40;3.60;;;25.00;67.60;;;;;;5101067;28;20804;-47
2021/06/20 05:33:32;;;;;;;4.60;3.57;;;25.00;67.70;;;;;;5099840;28;20512;-47
2021/06/20 05:35:59;;;;;;;9.53;4.37;;;25.00;67.90;;;;;;5096223;28;20460;-47
2021/06/20 05:38:25;;;;;;;8.50;3.70;;;25.00;67.90;;;;;;5098890;28;20463;-47
2021/06/20 05:40:52;;;;;;;7.27;3.67;;;25.00;68.10;;;;;;5093394;28;20845;-47
2021/06/20 05:43:19;;;;;;;6.47;4.13;;;25.00;67.80;;;;;;5101536;28;20464;-47
2021/06/20 05:45:45;;;;;;;6.60;3.63;;;25.00;67.90;;;;;;5098073;28;20996;-47
2021/06/20 05:48:12;;;;;;;5.63;4.40;;;25.00;68.20;;;;;;5099182;28;20462;-47
2021/06/20 05:50:40;;;;;;;6.60;4.23;;;25.00;68.50;;;;;;5099809;28;20451;-47
2021/06/20 05:53:06;;;;;;;5.23;4.10;;;25.10;68.70;;;;;;5097603;28;20463;-47
2021/06/20 05:55:33;;;;;;;5.53;4.20;;;25.10;68.20;;;;;;5097415;28;20453;-47
2021/06/20 05:58:00;;;;;;;5.73;4.50;;;25.20;68.40;;;;;;5097473;28;20447;-47
2021/06/20 06:00:27;;;;;;;6.10;3.80;;;25.10;68.00;;;;;;5098435;28;20932;-47
2021/06/20 06:02:58;;;;;;;5.20;3.50;;;25.10;68.20;;;;;;5097053;28;20449;-47
2021/06/20 06:05:25;;;;;;;5.00;4.50;;;25.10;67.90;;;;;;5095097;28;20487;-47
2021/06/20 06:07:53;;;;;;;5.80;3.80;;;25.10;67.90;;;;;;5096663;28;20546;-47
2021/06/20 06:10:28;;;;;;;5.70;4.13;;;25.10;67.90;;;;;;5095498;28;20554;-47
2021/06/20 06:12:58;;;;;;;5.60;3.60;;;25.10;67.60;;;;;;5100011;27;20462;-47
2021/06/20 06:15:30;;;;;;;5.40;3.90;;;25.10;67.70;;;;;;5098433;28;20544;-47
2021/06/20 06:17:58;;;;;;;6.17;3.50;;;25.10;67.80;;;;;;5097567;28;20467;-47
2021/06/20 06:20:25;;;;;;;5.13;3.60;;;25.10;67.50;;;;;;5095402;28;20460;-48
2021/06/20 06:22:52;;;;;;;3.90;3.50;;;25.10;67.80;;;;;;5094170;28;20451;-47
2021/06/20 06:25:19;;;;;;;8.60;4.00;;;25.10;68.10;;;;;;5099443;28;20462;-47
2021/06/20 06:27:47;;;;;;;8.97;4.10;;;25.20;68.10;;;;;;5097215;28;20536;-47
2021/06/20 06:30:15;;;;;;;5.33;3.93;;;25.20;68.00;;;;;;5097162;28;20474;-47
2021/06/20 06:32:44;;;;;;;5.77;3.50;;;25.20;66.50;;;;;;5093701;28;20444;-47
2021/06/20 06:35:11;;;;;;;6.90;3.60;;;25.30;66.90;;;;;;5100986;28;20518;-47
2021/06/20 06:37:39;;;;;;;5.57;3.10;;;25.30;67.10;;;;;;5097578;28;21443;-47
2021/06/20 06:40:08;;;;;;;8.47;3.67;;;25.30;66.30;;;;;;5099235;28;20462;-47
2021/06/20 06:42:35;;;;;;;5.10;3.50;;;25.30;66.40;;;;;;5100359;28;20851;-47
2021/06/20 06:45:03;;;;;;;5.87;3.70;;;25.30;66.00;;;;;;5098118;28;20458;-47
2021/06/20 06:47:31;;;;;;;7.07;3.33;;;25.30;65.60;;;;;;5098392;28;20451;-47
2021/06/20 06:49:58;;;;;;;7.97;3.60;;;25.40;65.70;;;;;;5097190;28;20573;-47
2021/06/20 06:52:24;;;;;;;3.70;2.90;;;25.40;65.60;;;;;;5098113;28;20999;-47
2021/06/20 06:54:51;;;;;;;4.00;3.60;;;25.40;65.90;;;;;;5097040;28;20517;-47
2021/06/20 06:57:20;;;;;;;5.10;2.90;;;25.40;64.90;;;;;;5096239;28;20451;-47
2021/06/20 06:59:47;;;;;;;4.67;4.03;;;25.50;65.00;;;;;;5096238;28;20967;-47
2021/06/20 07:02:15;;;;;;;6.67;3.43;;;25.50;65.10;;;;;;5097080;28;20464;-47
2021/06/20 07:04:41;;;;;;;5.43;3.27;;;25.50;65.00;;;;;;5092531;28;20471;-47
2021/06/20 07:07:08;;;;;;;3.83;3.13;;;25.60;64.70;;;;;;5091834;28;20893;-47
2021/06/20 07:09:35;;;;;;;4.70;3.17;;;25.70;63.80;;;;;;5099444;28;20838;-47
2021/06/20 07:12:02;;;;;;;6.80;3.67;;;25.70;63.50;;;;;;5101224;28;20471;-47
2021/06/20 07:14:29;;;;;;;5.40;3.10;;;25.70;63.90;;;;;;5099148;28;20482;-47
2021/06/20 07:16:56;;;;;;;3.23;2.93;;;25.80;63.60;;;;;;5095140;28;20937;-47
2021/06/20 07:19:23;;;;;;;7.70;3.90;;;25.80;62.40;;;;;;5095489;28;20478;-47
2021/06/20 07:21:50;;;;;;;3.80;3.10;;;25.90;62.30;;;;;;5095749;28;20455;-47
2021/06/20 07:24:17;;;;;;;4.80;3.23;;;25.90;62.70;;;;;;5098964;28;20439;-48
2021/06/20 07:26:44;;;;;;;5.20;3.40;;;25.90;62.70;;;;;;5096912;28;20956;-47
2021/06/20 07:29:10;;;;;;;7.43;3.57;;;25.90;62.40;;;;;;5093878;28;20470;-47
2021/06/20 07:31:37;;;;;;;8.00;3.20;;;25.90;62.50;;;;;;5096919;28;20443;-48
2021/06/20 07:34:04;;;;;;;6.97;3.57;;;26.00;62.60;;;;;;5094798;28;20491;-47
2021/06/20 07:36:31;;;;;;;3.50;2.50;;;26.00;62.40;;;;;;5096802;28;20831;-48
2021/06/20 07:38:58;;;;;;;4.60;3.20;;;26.00;62.60;;;;;;5091270;28;20456;-47
2021/06/20 07:41:27;;;;;;;3.17;2.87;;;26.10;62.20;;;;;;5095628;28;20486;-47
2021/06/20 07:43:54;;;;;;;7.83;3.00;;;26.10;62.10;;;;;;5094757;28;20456;-47
2021/06/20 07:46:21;;;;;;;4.37;3.13;;;26.20;62.00;;;;;;5095416;28;20455;-48
2021/06/20 07:48:47;;;;;;;5.43;3.10;;;26.20;62.30;;;;;;5095318;28;20456;-48
2021/06/20 07:51:14;;;;;;;6.90;3.40;;;26.30;62.10;;;;;;5095377;28;20467;-48
2021/06/20 07:53:41;;;;;;;2.90;2.53;;;26.30;62.20;;;;;;5097836;28;20455;-47
2021/06/20 07:56:09;;;;;;;3.80;2.83;;;26.40;61.80;;;;;;5105765;28;20446;-47
2021/06/20 07:58:36;;;;;;;4.53;3.43;;;26.50;61.20;;;;;;5103510;28;20442;-48
2021/06/20 08:01:03;;;;;;;3.73;3.33;;;26.50;60.20;;;;;;5098655;28;20492;-48
2021/06/20 08:03:32;;;;;;;6.33;2.83;;;26.60;60.40;;;;;;5101047;28;20443;-48
2021/06/20 08:06:01;;;;;;;5.47;3.90;;;26.80;60.40;;;;;;5096924;28;20917;-48
2021/06/20 08:08:28;;;;;;;5.60;3.17;;;26.90;59.70;;;;;;5104689;27;20886;-48
2021/06/20 08:10:56;;;;;;;4.47;4.03;;;27.00;59.00;;;;;;5101751;28;20451;-48
2021/06/20 08:13:24;;;;;;;4.20;3.50;;;27.00;58.50;;;;;;5099003;28;20473;-48
2021/06/20 08:15:51;;;;;;;2.60;2.30;;;27.00;58.30;;;;;;5097681;28;20535;-48
2021/06/20 08:18:18;;;;;;;3.00;2.80;;;27.00;58.50;;;;;;5096719;28;20485;-48
2021/06/20 08:20:44;;;;;;;4.00;2.50;;;27.00;58.30;;;;;;5103924;28;20450;-47
2021/06/20 08:23:11;;;;;;;4.00;3.23;;;27.00;58.40;;;;;;5099413;28;20452;-48
2021/06/20 08:25:38;;;;;;;3.67;3.00;;;27.00;58.50;;;;;;5102616;28;20462;-48
2021/06/20 08:28:05;;;;;;;4.80;3.00;;;27.10;58.80;;;;;;5102222;28;20455;-48
2021/06/20 08:30:32;;;;;;;4.70;2.70;;;27.20;58.10;;;;;;5098055;28;21304;-48
2021/06/20 08:32:59;;;;;;;5.10;3.20;;;27.20;58.10;;;;;;5097272;28;20455;-48
2021/06/20 08:35:26;;;;;;;3.13;2.93;;;27.20;58.50;;;;;;5101492;28;20488;-48
2021/06/20 08:37:52;;;;;;;4.10;2.53;;;27.30;58.40;;;;;;5098317;28;20753;-48
2021/06/20 08:40:19;;;;;;;4.60;3.23;;;27.40;58.70;;;;;;5099978;28;20796;-48
2021/06/20 08:42:46;;;;;;;4.40;3.10;;;27.50;58.00;;;;;;5094735;28;20467;-48
2021/06/20 08:45:15;;;;;;;3.67;2.93;;;27.60;58.70;;;;;;5101629;28;20831;-48
2021/06/20 08:47:43;;;;;;;5.10;3.80;;;27.60;57.70;;;;;;5095953;28;20534;-48
2021/06/20 08:50:11;;;;;;;4.80;3.43;;;27.60;58.40;;;;;;5097267;28;20550;-48
2021/06/20 08:52:38;;;;;;;4.87;2.87;;;27.70;57.90;;;;;;5100063;28;20454;-48
2021/06/20 08:55:11;;;;;;;3.33;2.60;;;27.70;57.70;;;;;;5104767;28;20464;-48
2021/06/20 08:57:40;;;;;;;4.83;3.07;;;27.80;57.90;;;;;;5097429;28;20499;-48
2021/06/20 09:00:13;;;;;;;4.97;3.20;;;27.90;57.40;;;;;;5097940;28;20531;-48
2021/06/20 09:02:40;;;;;;;7.00;3.30;;;27.90;57.30;;;;;;5103715;28;20547;-48
2021/06/20 09:05:09;;;;;;;4.43;3.33;;;28.00;56.40;;;;;;5100246;27;20450;-48
2021/06/20 09:07:41;;;;;;;4.53;4.10;;;28.00;56.20;;;;;;5098057;28;20910;-48
2021/06/20 09:10:18;;;;;;;5.13;3.30;;;28.00;56.40;;;;;;5097888;28;20453;-49
2021/06/20 09:12:49;;;;;;;6.33;3.23;;;28.00;56.00;;;;;;5098910;28;20441;-48
2021/06/20 09:15:18;;;;;;;8.10;3.50;;;28.00;55.40;;;;;;5098839;28;20480;-48
2021/06/20 09:17:48;;;;;;;4.37;3.93;;;28.00;55.20;;;;;;5098992;28;20470;-48
2021/06/20 09:20:15;;;;;;;10.00;4.30;;;28.20;55.00;;;;;;5100668;28;20550;-48
2021/06/20 09:22:41;;;;;;;6.40;3.90;;;28.20;55.10;;;;;;5098774;28;20457;-48
2021/06/20 09:25:11;;;;;;;4.50;3.70;;;28.20;54.70;;;;;;5099010;28;20448;-48
2021/06/20 09:27:39;;;;;;;5.77;3.67;;;28.30;55.20;;;;;;5097909;28;20210;-48
2021/06/20 09:30:13;;;;;;;4.90;4.40;;;28.30;54.40;;;;;;5096539;28;20448;-48
2021/06/20 09:33:00;;;;;;;4.07;3.67;;;28.30;53.90;;;;;;5093909;28;20452;-48
2021/06/20 09:35:44;;;;;;;4.00;3.60;;;28.30;54.10;;;;;;5097272;28;20483;-48
2021/06/20 09:38:18;;;;;;;4.80;4.40;;;28.20;54.10;;;;;;5098654;28;20447;-48
2021/06/20 09:40:46;;;;;;;7.37;5.00;;;28.20;54.30;;;;;;5100198;28;20512;-48
2021/06/20 09:43:15;;;;;;;5.70;3.73;;;28.20;54.30;;;;;;5097135;28;21032;-48
2021/06/20 09:45:47;;;;;;;7.70;4.90;;;28.10;55.00;;;;;;5098389;28;21038;-48
2021/06/20 09:48:47;;;;;;;5.90;3.57;;;28.00;55.60;;;;;;5095153;28;20963;-48
2021/06/20 09:51:30;;;;;;;4.87;3.80;;;27.90;55.30;;;;;;5056608;28;20447;-48
2021/06/20 09:53:56;;;;;;;5.87;3.80;;;27.90;55.40;;;;;;5099867;28;20454;-48
2021/06/20 09:56:28;;;;;;;4.27;3.87;;;27.90;55.60;;;;;;5102958;28;20452;-48
2021/06/20 09:59:00;;;;;;;4.60;4.17;;;27.90;55.10;;;;;;5101244;28;20448;-48
2021/06/20 10:01:29;;;;;;;9.70;4.40;;;27.80;55.90;;;;;;5097821;28;20455;-48
2021/06/20 10:03:56;;;;;;;6.40;4.10;;;27.80;55.90;;;;;;5097317;28;20781;-48
2021/06/20 10:06:23;;;;;;;3.50;3.20;;;27.80;55.70;;;;;;5096478;28;20470;-48
2021/06/20 10:08:50;;;;;;;3.93;3.63;;;27.80;55.70;;;;;;5097181;28;20482;-48
2021/06/20 10:11:18;;;;;;;5.80;3.80;;;27.80;55.40;;;;;;5103988;28;20823;-48
2021/06/20 10:13:45;;;;;;;6.50;4.07;;;27.90;55.80;;;;;;5095040;28;20615;-48
2021/06/20 10:16:24;;;;;;;5.40;3.70;;;27.90;56.00;;;;;;5096335;28;20861;-48
2021/06/20 10:18:58;;;;;;;6.13;4.57;;;28.00;55.30;;;;;;5097187;28;20535;-48
2021/06/20 10:21:37;;;;;;;4.53;3.67;;;27.90;55.60;;;;;;5099874;28;20451;-48
2021/06/20 10:24:06;;;;;;;5.37;4.87;;;28.00;55.50;;;;;;5096872;28;20543;-48
2021/06/20 10:26:34;;;;;;;4.30;3.90;;;28.00;55.70;;;;;;5098592;28;20953;-48
2021/06/20 10:29:14;;;;;;;4.00;3.70;;;28.00;55.90;;;;;;5094879;28;20481;-48
2021/06/20 10:31:40;;;;;;;5.47;4.57;;;28.00;55.90;;;;;;5096771;28;20446;-48
2021/06/20 10:34:18;;;;;;;4.20;3.73;;;28.10;56.40;;;;;;5094370;28;20531;-48
2021/06/20 10:36:53;;;;;;;5.10;4.13;;;28.10;56.30;;;;;;5099002;27;20973;-48
2021/06/20 10:39:21;;;;;;;4.90;4.50;;;28.10;55.80;;;;;;5100625;28;20469;-48
2021/06/20 10:41:48;;;;;;;4.67;4.23;;;28.20;55.50;;;;;;5098115;28;20453;-48
2021/06/20 10:44:16;;;;;;;5.40;4.23;;;28.20;55.70;;;;;;5098832;28;21670;-48
2021/06/20 10:46:54;;;;;;;5.77;4.53;;;28.20;55.70;;;;;;5102085;28;20464;-48
2021/06/20 10:49:21;;;;;;;4.93;4.43;;;28.20;55.90;;;;;;5097423;28;20439;-48
2021/06/20 10:51:50;;;;;;;4.57;3.83;;;28.20;56.00;;;;;;5096164;28;20202;-48
2021/06/20 10:54:43;;;;;;;4.40;4.00;;;28.20;55.80;;;;;;5099218;28;20451;-48
2021/06/20 10:57:12;;;;;;;4.70;3.60;;;28.10;55.70;;;;;;5093359;28;20538;-48
2021/06/20 10:59:39;;;;;;;5.03;4.53;;;28.10;55.60;;;;;;5094092;28;20448;-48
2021/06/20 11:02:22;;;;;;;5.90;4.00;;;28.20;55.80;;;;;;5096762;28;20523;-48
2021/06/20 11:04:49;;;;;;;6.20;3.30;;;28.30;55.80;;;;;;5099341;28;20206;-48
2021/06/20 11:07:28;;;;;;;4.53;4.13;;;28.30;55.00;;;;;;5097761;28;20391;-48
2021/06/20 11:09:56;;;;;;;4.00;3.57;;;28.40;54.70;;;;;;5099495;28;20216;-48
2021/06/20 11:12:26;;;;;;;4.57;4.20;;;28.40;54.70;;;;;;5099739;28;20210;-48
2021/06/20 11:14:54;;;;;;;7.70;3.67;;;28.40;54.80;;;;;;5098832;28;20498;-48
2021/06/20 11:17:31;;;;;;;4.83;3.70;;;28.30;54.00;;;;;;5096833;28;20260;-48
2021/06/20 11:20:09;;;;;;;6.53;3.83;;;28.30;54.40;;;;;;5097134;28;20560;-48
2021/06/20 11:22:35;;;;;;;4.27;3.87;;;28.40;55.40;;;;;;5094337;28;20233;-48
2021/06/20 11:25:02;;;;;;;4.00;3.10;;;28.40;54.80;;;;;;5097111;28;20202;-48
2021/06/20 11:27:32;;;;;;;5.37;3.20;;;28.40;54.60;;;;;;5097076;28;20963;-48
2021/06/20 11:30:00;;;;;;;5.33;4.23;;;28.40;54.60;;;;;;5099031;28;20886;-48
2021/06/20 11:32:34;;;;;;;3.77;3.47;;;28.50;55.80;;;;;;5102505;28;21022;-48
2021/06/20 11:35:09;;;;;;;4.60;3.10;;;28.50;54.20;;;;;;5102947;28;20248;-48
2021/06/20 11:37:38;;;;;;;3.87;3.50;;;28.50;53.40;;;;;;5099635;28;20554;-48
2021/06/20 11:40:08;;;;;;;4.83;3.60;;;28.50;53.10;;;;;;5098113;28;20464;-48
2021/06/20 11:42:43;;;;;;;6.07;3.60;;;28.40;53.50;;;;;;5096676;27;20293;-48
2021/06/20 11:45:11;;;;;;;4.60;2.77;;;28.50;54.10;;;;;;5101334;28;20465;-48
2021/06/20 11:47:43;;;;;;;4.47;3.50;;;28.50;53.70;;;;;;5095132;28;20267;-48
2021/06/20 11:50:20;;;;;;;7.20;3.57;;;28.60;53.90;;;;;;5100012;28;20456;-48
2021/06/20 11:52:55;;;;;;;6.73;4.00;;;28.60;53.70;;;;;;5097803;28;20243;-48
2021/06/20 11:55:25;;;;;;;3.50;3.03;;;28.70;53.50;;;;;;5097987;28;20229;-48
2021/06/20 11:57:54;;;;;;;22.27;4.97;;;28.70;53.20;;;;;;5098687;27;20494;-47
2021/06/20 12:00:26;;;;;;;5.27;3.70;;;28.70;53.40;;;;;;5096980;27;20202;-47
2021/06/20 12:03:11;;;;;;;4.73;3.40;;;28.80;53.50;;;;;;5102015;28;20194;-47
2021/06/20 12:05:59;;;;;;;4.07;3.63;;;28.80;53.80;;;;;;5099297;28;20201;-47
2021/06/20 12:08:27;;;;;;;4.37;3.80;;;28.90;53.00;;;;;;5102714;28;20724;-47
2021/06/20 12:10:55;;;;;;;3.87;3.47;;;28.70;52.80;;;;;;5102602;28;20214;-47
2021/06/20 12:13:21;;;;;;;5.40;3.87;;;28.80;54.10;;;;;;5105031;28;20205;-47
2021/06/20 12:15:59;;;;;;;4.10;3.20;;;28.80;53.90;;;;;;5097419;28;20229;-47
2021/06/20 12:18:29;;;;;;;6.77;3.67;;;28.80;53.90;;;;;;5100253;28;20240;-47
2021/06/20 12:20:56;;;;;;;3.80;3.40;;;28.80;54.00;;;;;;5098714;28;20198;-47
2021/06/20 12:23:33;;;;;;;5.67;3.40;;;28.70;54.00;;;;;;5100836;28;20202;-48
2021/06/20 12:26:01;;;;;;;5.33;3.80;;;28.70;52.60;;;;;;5098105;28;20477;-47
2021/06/20 12:28:28;;;;;;;4.20;3.80;;;28.70;53.40;;;;;;5098550;28;20451;-48
2021/06/20 12:30:56;;;;;;;6.13;4.10;;;28.70;53.40;;;;;;5100048;28;21663;-47
2021/06/20 12:33:25;;;;;;;4.60;4.17;;;28.70;53.40;;;;;;5101141;28;20250;-47
2021/06/20 12:35:54;;;;;;;4.97;4.13;;;28.80;53.00;;;;;;5100874;28;20487;-47
2021/06/20 12:38:23;;;;;;;4.20;3.80;;;28.80;53.80;;;;;;5098173;28;20589;-48
2021/06/20 12:40:50;;;;;;;6.67;4.27;;;28.80;54.00;;;;;;5100273;28;20211;-48
2021/06/20 12:43:19;;;;;;;4.37;3.83;;;28.70;53.10;;;;;;5103832;28;20202;-48
2021/06/20 12:45:57;;;;;;;4.60;3.73;;;28.70;53.60;;;;;;5103912;28;20347;-47
2021/06/20 12:48:24;;;;;;;4.63;4.00;;;28.80;53.70;;;;;;5101748;28;20212;-47
2021/06/20 12:50:56;;;;;;;6.60;4.37;;;28.80;53.70;;;;;;5094024;28;20281;-47